createdAt,value
2018-11-25T00:02:43.518Z,79.77
2018-11-25T00:05:31.968Z,118.47
2018-11-25T00:08:20.409Z,102.60
2018-11-25T00:14:22.492Z,82.97
2018-11-25T00:17:10.956Z,110.30
2018-11-25T00:19:59.383Z,101.30
2018-11-25T00:22:47.867Z,108.67
2018-11-25T00:25:36.293Z,77.30
2018-11-25T00:31:59.065Z,120.07
2018-11-25T00:34:47.643Z,121.83
2018-11-25T00:37:36.157Z,123.30
2018-11-25T00:46:39.166Z,116.47
2018-11-25T00:49:21.175Z,82.57
2018-11-25T00:52:02.935Z,116.20
2018-11-25T00:54:44.867Z,83.47
2018-11-25T00:57:26.019Z,90.27
2018-11-25T01:00:07.483Z,96.97
2018-11-25T01:02:49.318Z,98.23
2018-11-25T01:05:30.659Z,120.47
2018-11-25T01:08:00.736Z,107.10
2018-11-25T01:10:49.184Z,117.27
2018-11-25T01:13:37.618Z,133.00
2018-11-25T01:16:26.051Z,111.37
2018-11-25T01:19:14.398Z,82.30
2018-11-25T01:22:02.889Z,119.43
2018-11-25T01:24:51.321Z,164.00
2018-11-25T01:27:39.797Z,101.03
2018-11-25T01:30:28.183Z,99.40
2018-11-25T01:33:09.429Z,105.37
2018-11-25T01:35:50.327Z,83.27
2018-11-25T01:38:32.274Z,74.53
2018-11-25T01:41:13.890Z,96.97
2018-11-25T01:43:58.261Z,85.67
2018-11-25T01:46:39.508Z,106.33
2018-11-25T01:49:20.510Z,90.80
2018-11-25T01:52:02.408Z,77.27
2018-11-25T01:54:43.446Z,82.23
2018-11-25T01:57:24.434Z,84.07
2018-11-25T02:00:06.320Z,85.47
2018-11-25T02:02:48.079Z,92.53
2018-11-25T02:05:29.880Z,77.93
2018-11-25T02:07:59.308Z,81.77
2018-11-25T02:14:01.670Z,81.60
2018-11-25T02:16:50.065Z,87.77
2018-11-25T02:19:38.522Z,85.37
2018-11-25T02:22:26.966Z,74.80
2018-11-25T02:25:15.377Z,67.60
2018-11-25T02:28:03.773Z,74.63
2018-11-25T02:30:52.263Z,93.37
2018-11-25T02:33:40.664Z,84.33
2018-11-25T02:42:57.015Z,64.07
2018-11-25T02:45:45.446Z,63.17
2018-11-25T02:48:33.960Z,67.90
2018-11-25T02:51:22.370Z,81.60
2018-11-25T02:54:10.770Z,63.63
2018-11-25T02:56:59.212Z,67.63
2018-11-25T02:59:47.706Z,74.33
2018-11-25T03:02:36.143Z,85.50
2018-11-25T03:05:24.561Z,64.90
2018-11-25T03:07:53.631Z,74.40
2018-11-25T03:10:42.059Z,71.83
2018-11-25T03:13:30.498Z,75.60
2018-11-25T03:16:18.909Z,76.27
2018-11-25T03:19:07.330Z,81.20
2018-11-25T03:21:55.758Z,99.30
2018-11-25T03:24:44.171Z,89.63
2018-11-25T03:27:32.596Z,76.93
2018-11-25T03:33:35.544Z,74.40
2018-11-25T03:36:23.975Z,79.30
2018-11-25T03:39:12.407Z,127.67
2018-11-25T03:42:00.839Z,94.10
2018-11-25T03:44:49.256Z,77.23
2018-11-25T03:47:37.673Z,67.80
2018-11-25T03:50:26.123Z,65.80
2018-11-25T03:53:14.549Z,69.83
2018-11-25T03:56:02.936Z,66.03
2018-11-25T03:58:51.679Z,100.83
2018-11-25T04:01:40.125Z,106.17
2018-11-25T04:10:55.374Z,97.83
2018-11-25T04:13:43.896Z,83.17
2018-11-25T04:16:32.360Z,79.87
2018-11-25T04:19:20.780Z,118.40
2018-11-25T04:22:09.177Z,85.27
2018-11-25T04:24:57.578Z,88.80
2018-11-25T04:27:45.999Z,83.83
2018-11-25T04:30:34.359Z,69.10
2018-11-25T04:33:22.761Z,110.20
2018-11-25T04:39:01.011Z,112.20
2018-11-25T04:41:49.391Z,132.50
2018-11-25T04:54:19.227Z,201.40
2018-11-25T05:00:21.324Z,150.10
2018-11-25T05:03:09.752Z,126.93
2018-11-25T05:05:58.159Z,127.80
2018-11-25T05:08:46.629Z,94.90
2018-11-25T05:11:35.032Z,150.43
2018-11-25T05:14:23.473Z,114.17
2018-11-25T05:17:11.885Z,136.27
2018-11-25T05:20:00.347Z,155.60
2018-11-25T05:22:48.787Z,124.47
2018-11-25T05:28:50.719Z,99.60
2018-11-25T05:34:52.747Z,92.43
2018-11-25T05:37:41.455Z,100.83
2018-11-25T05:40:30.007Z,168.60
2018-11-25T05:43:18.413Z,125.57
2018-11-25T05:46:06.863Z,159.23
2018-11-25T05:48:55.225Z,126.43
2018-11-25T05:51:43.897Z,109.27
2018-11-25T05:54:32.324Z,92.40
2018-11-25T05:57:21.010Z,96.37
2018-11-25T06:00:47.985Z,114.70
2018-11-25T06:03:36.422Z,126.23
2018-11-25T06:06:24.825Z,98.33
2018-11-25T06:12:26.732Z,76.13
2018-11-25T06:15:15.251Z,89.80
2018-11-25T06:18:03.681Z,78.43
2018-11-25T06:20:52.084Z,68.07
2018-11-25T06:23:40.563Z,123.10
2018-11-25T06:26:28.984Z,87.00
2018-11-25T06:32:31.631Z,87.43
2018-11-25T06:35:20.037Z,98.80
2018-11-25T06:38:08.464Z,84.07
2018-11-25T06:40:56.883Z,100.13
2018-11-25T06:43:45.271Z,78.67
2018-11-25T06:46:33.692Z,87.30
2018-11-25T06:49:22.069Z,70.77
2018-11-25T06:52:10.509Z,58.83
2018-11-25T06:54:58.947Z,75.40
2018-11-25T06:57:47.326Z,119.77
2018-11-25T07:00:35.858Z,99.90
2018-11-25T07:03:24.262Z,85.80
2018-11-25T07:06:12.697Z,86.63
2018-11-25T07:08:41.719Z,92.60
2018-11-25T07:11:30.146Z,78.10
2018-11-25T07:14:18.669Z,79.70
2018-11-25T07:17:07.168Z,71.80
2018-11-25T07:20:15.709Z,80.43
2018-11-25T07:23:04.111Z,75.07
2018-11-25T07:25:52.540Z,68.67
2018-11-25T07:31:36.845Z,97.43
2018-11-25T07:34:25.343Z,92.70
2018-11-25T07:37:13.768Z,85.50
2018-11-25T07:40:02.357Z,77.67
2018-11-25T07:42:50.905Z,79.30
2018-11-25T07:45:58.954Z,123.33
2018-11-25T07:48:47.377Z,97.30
2018-11-25T07:58:16.864Z,69.67
2018-11-25T08:01:05.307Z,69.07
2018-11-25T08:03:53.732Z,98.67
2018-11-25T08:06:42.158Z,77.13
2018-11-25T08:09:30.633Z,111.10
2018-11-25T08:12:19.078Z,87.93
2018-11-25T08:15:08.565Z,82.03
2018-11-25T08:17:57.179Z,64.17
2018-11-25T08:20:45.639Z,71.17
2018-11-25T08:23:34.134Z,64.37
2018-11-25T08:26:22.557Z,72.03
2018-11-25T08:29:11.071Z,63.73
2018-11-25T08:31:59.545Z,60.93
2018-11-25T08:34:48.082Z,60.87
2018-11-25T08:37:36.588Z,80.23
2018-11-25T08:40:25.098Z,69.00
2018-11-25T08:43:13.597Z,56.83
2018-11-25T08:46:02.118Z,71.63
2018-11-25T08:48:50.779Z,85.97
2018-11-25T08:51:39.233Z,65.80
2018-11-25T08:57:42.032Z,61.83
2018-11-25T09:00:30.479Z,72.20
2018-11-25T09:03:18.939Z,67.73
2018-11-25T09:06:07.463Z,65.63
2018-11-25T09:12:03.914Z,68.77
2018-11-25T09:14:52.300Z,75.77
2018-11-25T09:17:40.804Z,84.83
2018-11-25T09:20:29.259Z,60.50
2018-11-25T09:23:17.716Z,70.97
2018-11-25T09:26:06.131Z,63.93
2018-11-25T09:28:54.564Z,68.73
2018-11-25T09:31:42.944Z,65.53
2018-11-25T09:34:31.724Z,70.10
2018-11-25T09:40:34.285Z,69.47
2018-11-25T09:43:22.683Z,77.33
2018-11-25T09:46:11.174Z,68.53
2018-11-25T09:48:59.542Z,72.80
2018-11-25T09:51:47.981Z,66.27
2018-11-25T09:54:36.368Z,55.70
2018-11-25T09:57:24.886Z,54.33
2018-11-25T10:00:22.849Z,55.47
2018-11-25T10:03:11.235Z,51.93
2018-11-25T10:05:59.675Z,52.83
2018-11-25T10:08:48.124Z,45.80
2018-11-25T10:11:56.259Z,50.47
2018-11-25T10:17:40.872Z,51.60
2018-11-25T10:20:29.889Z,52.70
2018-11-25T10:26:32.703Z,70.03
2018-11-25T10:29:21.280Z,107.30
2018-11-25T10:32:09.862Z,51.67
2018-11-25T10:34:58.315Z,51.57
2018-11-25T10:37:46.743Z,53.10
2018-11-25T10:40:35.122Z,58.43
2018-11-25T10:43:23.561Z,49.73
2018-11-25T10:46:12.034Z,56.57
2018-11-25T10:49:00.529Z,49.70
2018-11-25T10:51:48.958Z,43.93
2018-11-25T10:54:37.404Z,46.63
2018-11-25T10:57:25.811Z,47.10
2018-11-25T11:00:52.902Z,43.10
2018-11-25T11:04:00.487Z,47.97
2018-11-25T11:07:08.120Z,70.50
2018-11-25T11:09:56.636Z,130.00
2018-11-25T11:12:45.102Z,81.00
2018-11-25T11:15:33.558Z,68.60
2018-11-25T11:18:22.065Z,53.17
2018-11-25T11:21:11.056Z,57.17
2018-11-25T11:24:19.149Z,52.90
2018-11-25T11:27:07.845Z,53.63
2018-11-25T11:29:56.281Z,58.50
2018-11-25T11:32:45.324Z,54.87
2018-11-25T11:35:33.734Z,54.27
2018-11-25T11:38:22.176Z,55.03
2018-11-25T11:41:10.573Z,56.87
2018-11-25T11:43:59.011Z,47.40
2018-11-25T11:46:47.445Z,58.40
2018-11-25T11:49:35.937Z,55.60
2018-11-25T11:52:24.429Z,56.40
2018-11-25T11:58:27.710Z,46.67
2018-11-25T12:01:16.138Z,46.73
2018-11-25T12:04:04.985Z,59.20
2018-11-25T12:06:53.439Z,53.60
2018-11-25T12:09:22.496Z,55.80
2018-11-25T12:12:10.967Z,42.17
2018-11-25T12:14:59.578Z,48.17
2018-11-25T12:17:48.003Z,51.53
2018-11-25T12:20:36.509Z,55.47
2018-11-25T12:23:17.806Z,50.33
2018-11-25T12:25:58.854Z,47.87
2018-11-25T12:28:40.227Z,49.77
2018-11-25T12:31:22.108Z,44.60
2018-11-25T12:34:03.955Z,48.47
2018-11-25T12:36:44.984Z,52.10
2018-11-25T12:39:28.513Z,56.53
2018-11-25T12:42:07.701Z,53.30
2018-11-25T12:44:49.489Z,55.37
2018-11-25T12:47:31.330Z,54.97
2018-11-25T12:50:09.394Z,55.77
2018-11-25T12:56:12.248Z,49.17
2018-11-25T12:59:00.607Z,48.53
2018-11-25T13:01:49.020Z,50.87
2018-11-25T13:04:37.511Z,44.73
2018-11-25T13:07:25.930Z,54.70
2018-11-25T13:09:55.046Z,50.37
2018-11-25T13:12:43.437Z,50.90
2018-11-25T13:15:31.898Z,54.43
2018-11-25T13:18:20.278Z,62.30
2018-11-25T13:21:09.123Z,51.93
2018-11-25T13:23:57.530Z,48.23
2018-11-25T13:26:45.950Z,52.67
2018-11-25T13:29:34.366Z,57.40
2018-11-25T13:32:42.005Z,51.93
2018-11-25T13:38:48.177Z,60.63
2018-11-25T13:47:58.326Z,57.77
2018-11-25T13:50:46.739Z,56.13
2018-11-25T13:53:35.239Z,57.43
2018-11-25T13:56:24.104Z,58.40
2018-11-25T13:59:05.279Z,56.60
2018-11-25T14:01:46.814Z,59.60
2018-11-25T14:04:28.557Z,59.77
2018-11-25T14:07:10.346Z,63.37
2018-11-25T14:09:39.340Z,59.60
2018-11-25T14:12:27.761Z,61.83
2018-11-25T14:18:47.419Z,82.87
2018-11-25T14:21:35.816Z,64.70
2018-11-25T14:24:24.211Z,68.83
2018-11-25T14:27:12.621Z,64.83
2018-11-25T14:30:01.032Z,71.60
2018-11-25T14:32:49.484Z,64.27
2018-11-25T14:35:37.917Z,58.50
2018-11-25T14:38:26.356Z,68.80
2018-11-25T14:41:34.526Z,61.10
2018-11-25T14:44:22.940Z,67.73
2018-11-25T14:47:11.349Z,65.20
2018-11-25T14:50:00.777Z,75.70
2018-11-25T14:53:08.677Z,66.67
2018-11-25T14:55:57.173Z,66.67
2018-11-25T14:58:45.634Z,72.50
2018-11-25T15:01:34.076Z,75.43
2018-11-25T15:04:22.604Z,69.27
2018-11-25T15:07:11.631Z,65.50
2018-11-25T15:09:40.722Z,65.53
2018-11-25T15:12:29.260Z,62.73
2018-11-25T15:15:17.343Z,66.90
2018-11-25T15:18:06.278Z,66.70
2018-11-25T15:20:54.724Z,61.63
2018-11-25T15:23:43.239Z,64.90
2018-11-25T15:26:31.742Z,61.53
2018-11-25T15:29:20.190Z,65.93
2018-11-25T15:32:08.738Z,61.70
2018-11-25T15:34:57.145Z,62.60
2018-11-25T15:41:00.299Z,63.40
2018-11-25T15:43:48.780Z,65.40
2018-11-25T15:46:37.256Z,68.23
2018-11-25T15:52:33.470Z,60.67
2018-11-25T15:55:21.918Z,59.40
2018-11-25T15:58:10.408Z,67.37
2018-11-25T16:04:30.442Z,63.33
2018-11-25T16:07:18.880Z,63.43
2018-11-25T16:09:48.064Z,64.70
2018-11-25T16:15:44.222Z,56.33
2018-11-25T16:18:32.918Z,58.77
2018-11-25T16:21:21.396Z,59.40
2018-11-25T16:24:03.114Z,54.20
2018-11-25T16:26:44.226Z,60.67
2018-11-25T16:29:25.808Z,61.93
2018-11-25T16:32:07.005Z,50.50
2018-11-25T16:34:48.571Z,57.90
2018-11-25T16:37:29.718Z,54.30
2018-11-25T16:40:12.431Z,55.10
2018-11-25T16:43:00.899Z,49.70
2018-11-25T16:45:49.382Z,46.17
2018-11-25T16:48:37.816Z,56.13
2018-11-25T16:51:26.251Z,67.00
2018-11-25T16:57:28.612Z,43.30
2018-11-25T17:00:17.607Z,54.83
2018-11-25T17:03:06.323Z,65.47
2018-11-25T17:05:54.823Z,48.83
2018-11-25T17:08:43.523Z,56.13
2018-11-25T17:11:31.954Z,54.83
2018-11-25T17:14:20.364Z,59.93
2018-11-25T17:17:08.911Z,65.80
2018-11-25T17:19:57.325Z,62.53
2018-11-25T17:22:45.788Z,57.23
2018-11-25T17:25:34.188Z,61.40
2018-11-25T17:31:36.998Z,60.60
2018-11-25T17:34:25.460Z,58.70
2018-11-25T17:37:14.227Z,54.10
2018-11-25T17:40:02.661Z,64.57
2018-11-25T17:46:05.160Z,63.53
2018-11-25T17:48:53.557Z,61.47
2018-11-25T17:54:55.678Z,67.03
2018-11-25T17:57:44.134Z,60.00
2018-11-25T18:00:52.606Z,71.07
2018-11-25T18:03:41.042Z,71.43
2018-11-25T18:06:29.510Z,64.73
2018-11-25T18:09:18.279Z,67.33
2018-11-25T18:18:54.001Z,59.13
2018-11-25T18:21:42.385Z,52.47
2018-11-25T18:27:45.088Z,62.27
2018-11-25T18:30:33.513Z,66.37
2018-11-25T18:33:21.930Z,64.80
2018-11-25T18:36:11.447Z,68.37
2018-11-25T18:38:59.917Z,62.83
2018-11-25T18:41:48.369Z,70.97
2018-11-25T18:47:45.391Z,60.93
2018-11-25T18:50:33.799Z,70.50
2018-11-25T18:53:22.266Z,65.00
2018-11-25T18:56:10.760Z,64.33
2018-11-25T18:58:59.189Z,63.13
2018-11-25T19:02:07.070Z,67.90
2018-11-25T19:04:55.706Z,71.03
2018-11-25T19:07:44.102Z,66.33
2018-11-25T19:10:17.136Z,66.30
2018-11-25T19:13:05.978Z,62.80
2018-11-25T19:15:54.379Z,72.97
2018-11-25T19:18:42.815Z,76.83
2018-11-25T19:21:31.246Z,73.80
2018-11-25T19:24:19.790Z,72.67
2018-11-25T19:27:08.360Z,77.00
2018-11-25T19:29:56.805Z,74.00
2018-11-25T19:32:45.819Z,76.07
2018-11-25T19:35:34.279Z,173.60
2018-11-25T19:38:22.832Z,102.07
2018-11-25T19:41:11.282Z,84.23
2018-11-25T19:43:59.688Z,86.50
2018-11-25T19:46:48.104Z,111.60
2018-11-25T19:53:40.894Z,60.37
2018-11-25T19:56:29.334Z,67.10
2018-11-25T19:59:17.719Z,69.30
2018-11-25T20:02:06.125Z,68.87
2018-11-25T20:04:54.760Z,64.90
2018-11-25T20:07:42.304Z,67.03
2018-11-25T20:10:15.729Z,51.00
2018-11-25T20:13:04.146Z,62.57
2018-11-25T20:15:52.605Z,71.00
2018-11-25T20:18:42.398Z,61.00
2018-11-25T20:21:48.620Z,60.83
2018-11-25T20:24:37.070Z,60.83
2018-11-25T20:27:44.677Z,65.10
2018-11-25T20:30:33.596Z,69.60
2018-11-25T20:33:41.365Z,63.03
2018-11-25T20:36:29.958Z,57.43
2018-11-25T20:39:37.589Z,58.07
2018-11-25T20:42:25.996Z,64.67
2018-11-25T20:45:39.025Z,54.60
2018-11-25T20:48:22.619Z,62.70
2018-11-25T20:51:11.105Z,51.80
2018-11-25T20:54:00.327Z,50.73
2018-11-25T20:56:48.838Z,55.30
2018-11-25T20:59:30.135Z,48.70
2018-11-25T21:02:11.697Z,57.57
2018-11-25T21:04:53.455Z,58.93
2018-11-25T21:07:34.899Z,50.30
2018-11-25T21:10:16.245Z,48.27
2018-11-25T21:12:57.750Z,51.23
2018-11-25T21:15:39.750Z,59.60
2018-11-25T21:18:20.888Z,50.90
2018-11-25T21:21:02.024Z,54.07
2018-11-25T21:23:43.890Z,55.07
2018-11-25T21:26:24.991Z,56.27
2018-11-25T21:29:06.391Z,59.63
2018-11-25T21:31:47.483Z,52.13
2018-11-25T21:34:29.928Z,57.90
2018-11-25T21:37:11.197Z,62.07
2018-11-25T21:39:52.194Z,63.00
2018-11-25T21:42:33.952Z,65.40
2018-11-25T21:45:15.220Z,49.90
2018-11-25T21:47:58.006Z,68.13
2018-11-25T21:50:38.445Z,58.50
2018-11-25T21:53:19.568Z,62.60
2018-11-25T21:56:01.369Z,65.17
2018-11-25T21:58:43.449Z,63.83
2018-11-25T22:01:24.772Z,62.40
2018-11-25T22:04:06.424Z,58.50
2018-11-25T22:06:48.225Z,60.07
2018-11-25T22:09:29.924Z,58.03
2018-11-25T22:12:10.871Z,61.63
2018-11-25T22:14:52.649Z,69.30
2018-11-25T22:17:33.745Z,66.17
2018-11-25T22:20:16.043Z,63.37
2018-11-25T22:22:57.351Z,59.27
2018-11-25T22:25:38.585Z,70.70
2018-11-25T22:28:21.019Z,68.17
2018-11-25T22:31:02.265Z,67.60
2018-11-25T22:33:43.753Z,61.73
2018-11-25T22:36:25.461Z,58.30
2018-11-25T22:39:06.440Z,73.50
2018-11-25T22:41:48.217Z,59.30
2018-11-25T22:44:29.816Z,67.40
2018-11-25T22:47:11.656Z,65.33
2018-11-25T22:49:52.600Z,69.00
2018-11-25T22:52:34.089Z,66.67
2018-11-25T22:55:15.940Z,64.17
2018-11-25T22:57:57.406Z,69.93
2018-11-25T23:00:39.411Z,67.13
2018-11-25T23:03:20.381Z,73.17
2018-11-25T23:06:02.111Z,72.57
2018-11-25T23:08:43.271Z,64.77
2018-11-25T23:11:12.397Z,62.53
2018-11-25T23:14:00.863Z,72.00
2018-11-25T23:20:03.988Z,62.80
2018-11-25T23:22:45.536Z,64.10
2018-11-25T23:25:27.477Z,63.93
2018-11-25T23:28:08.894Z,68.90
2018-11-25T23:30:50.095Z,58.87
2018-11-25T23:33:31.925Z,64.77
2018-11-25T23:36:12.922Z,64.73
2018-11-25T23:38:54.089Z,64.17
2018-11-25T23:41:35.505Z,70.47
2018-11-25T23:44:20.578Z,66.90
2018-11-25T23:47:01.902Z,66.40
2018-11-25T23:49:42.887Z,61.07
2018-11-25T23:52:23.925Z,57.53
2018-11-25T23:55:05.089Z,65.40
2018-11-25T23:57:46.714Z,57.93
